createdAt,value
2023-02-12T00:00:51.037Z,25.20
2023-02-12T00:03:21.669Z,25.30
2023-02-12T00:05:51.556Z,25.50
2023-02-12T00:08:20.927Z,25.70
2023-02-12T00:10:50.231Z,25.80
2023-02-12T00:13:19.553Z,26.00
2023-02-12T00:15:49.077Z,26.20
2023-02-12T00:18:19.486Z,26.20
2023-02-12T00:20:48.857Z,26.40
2023-02-12T00:23:19.045Z,26.40
2023-02-12T00:25:48.810Z,26.60
2023-02-12T00:28:18.415Z,26.80
2023-02-12T00:30:47.826Z,27.00
2023-02-12T00:33:18.475Z,27.20
2023-02-12T00:35:48.475Z,27.20
2023-02-12T00:38:18.924Z,27.20
2023-02-12T00:40:48.261Z,27.40
2023-02-12T00:43:17.610Z,27.50
2023-02-12T00:45:48.044Z,27.50
2023-02-12T00:48:19.381Z,27.40
2023-02-12T00:50:50.678Z,27.40
2023-02-12T00:53:21.348Z,27.50
2023-02-12T00:55:50.674Z,27.50
2023-02-12T00:58:20.384Z,27.50
2023-02-12T01:00:49.801Z,27.40
2023-02-12T01:03:19.872Z,27.50
2023-02-12T01:05:49.647Z,27.70
2023-02-12T01:08:19.353Z,27.60
2023-02-12T01:10:56.721Z,27.50
2023-02-12T01:13:27.196Z,27.30
2023-02-12T01:16:12.692Z,27.50
2023-02-12T01:18:42.664Z,27.60
2023-02-12T01:21:17.952Z,27.40
2023-02-12T01:23:47.654Z,27.20
2023-02-12T01:26:17.826Z,26.90
2023-02-12T01:28:51.316Z,26.90
2023-02-12T01:31:22.326Z,26.80
2023-02-12T01:33:52.366Z,27.20
2023-02-12T01:36:22.643Z,27.30
2023-02-12T01:38:52.543Z,27.40
2023-02-12T01:41:24.298Z,27.50
2023-02-12T01:44:09.265Z,27.70
2023-02-12T01:46:38.979Z,27.40
2023-02-12T01:49:10.519Z,27.30
2023-02-12T01:51:40.034Z,27.50
2023-02-12T01:54:11.705Z,27.60
2023-02-12T01:56:41.549Z,27.70
2023-02-12T01:59:11.464Z,28.00
2023-02-12T02:01:40.992Z,28.30
2023-02-12T02:04:23.058Z,28.50
2023-02-12T02:06:58.849Z,28.70
2023-02-12T02:09:29.890Z,28.70
2023-02-12T02:12:17.416Z,28.60
2023-02-12T02:14:47.570Z,28.70
2023-02-12T02:17:32.237Z,28.80
2023-02-12T02:20:20.953Z,29.10
2023-02-12T02:23:03.436Z,29.10
2023-02-12T02:25:53.020Z,29.20
2023-02-12T02:28:35.267Z,28.90
2023-02-12T02:31:08.241Z,28.90
2023-02-12T02:33:41.048Z,29.00
2023-02-12T02:36:29.493Z,29.00
2023-02-12T02:39:08.459Z,28.90
2023-02-12T02:41:41.200Z,28.90
2023-02-12T02:44:15.089Z,29.00
2023-02-12T02:46:47.685Z,29.20
2023-02-12T02:49:24.883Z,29.30
2023-02-12T02:51:58.630Z,29.50
2023-02-12T02:54:43.861Z,29.70
2023-02-12T02:57:33.942Z,29.80
2023-02-12T03:00:22.471Z,30.00
2023-02-12T03:02:57.949Z,30.00
2023-02-12T03:05:32.215Z,30.00
2023-02-12T03:08:04.159Z,30.00
2023-02-12T03:10:38.852Z,30.00
2023-02-12T03:13:10.918Z,30.20
2023-02-12T03:15:43.394Z,30.20
2023-02-12T03:18:15.258Z,30.20
2023-02-12T03:20:47.814Z,30.30
2023-02-12T03:23:23.410Z,30.40
2023-02-12T03:26:06.247Z,30.40
2023-02-12T03:28:37.403Z,30.60
2023-02-12T03:31:17.689Z,30.70
2023-02-12T03:33:48.280Z,30.30
2023-02-12T03:36:18.613Z,30.60
2023-02-12T03:38:50.863Z,30.50
2023-02-12T03:41:25.004Z,30.50
2023-02-12T03:44:02.260Z,30.60
2023-02-12T03:47:04.037Z,30.20
2023-02-12T03:49:38.947Z,30.40
2023-02-12T03:52:08.318Z,30.60
2023-02-12T03:54:38.699Z,30.80
2023-02-12T03:57:11.919Z,30.90
2023-02-12T03:59:42.882Z,30.90
2023-02-12T04:02:12.734Z,30.80
2023-02-12T04:04:42.648Z,30.90
2023-02-12T04:07:12.827Z,31.00
2023-02-12T04:09:42.344Z,31.20
2023-02-12T04:12:31.248Z,31.00
2023-02-12T04:15:11.157Z,30.80
2023-02-12T04:17:59.404Z,30.90
2023-02-12T04:20:33.592Z,31.10
2023-02-12T04:23:06.449Z,31.20
2023-02-12T04:25:54.625Z,31.00
2023-02-12T04:28:31.138Z,30.90
2023-02-12T04:31:27.163Z,30.80
2023-02-12T04:34:06.880Z,30.90
2023-02-12T04:36:39.330Z,30.90
2023-02-12T04:39:13.716Z,30.80
2023-02-12T04:41:44.023Z,30.60
2023-02-12T04:44:18.667Z,30.40
2023-02-12T04:46:47.998Z,30.30
2023-02-12T04:49:19.924Z,30.20
2023-02-12T04:51:49.876Z,30.10
2023-02-12T04:54:20.289Z,30.00
2023-02-12T04:56:50.480Z,29.90
2023-02-12T04:59:21.112Z,29.80
2023-02-12T05:01:50.964Z,29.70
2023-02-12T05:04:21.180Z,29.60
2023-02-12T05:06:51.053Z,29.40
2023-02-12T05:09:23.789Z,29.30
2023-02-12T05:11:53.236Z,29.30
2023-02-12T05:14:23.041Z,29.20
2023-02-12T05:16:52.349Z,29.20
2023-02-12T05:19:22.737Z,29.10
2023-02-12T05:21:53.961Z,29.00
2023-02-12T05:24:23.716Z,28.90
2023-02-12T05:26:54.295Z,28.80
2023-02-12T05:29:25.205Z,28.80
2023-02-12T05:31:54.737Z,28.70
2023-02-12T05:34:25.331Z,28.60
2023-02-12T05:36:55.067Z,28.60
2023-02-12T05:39:24.988Z,28.50
2023-02-12T05:41:55.327Z,28.50
2023-02-12T05:44:25.277Z,28.40
2023-02-12T05:46:55.008Z,28.40
2023-02-12T05:49:25.402Z,28.30
2023-02-12T05:51:55.561Z,28.30
2023-02-12T05:54:24.875Z,28.20
2023-02-12T05:56:54.264Z,28.20
2023-02-12T05:59:24.911Z,28.20
2023-02-12T06:01:54.444Z,28.20
2023-02-12T06:04:25.786Z,28.30
2023-02-12T06:06:55.722Z,28.30
2023-02-12T06:09:25.710Z,28.30
2023-02-12T06:11:55.057Z,28.20
2023-02-12T06:14:24.520Z,28.40
2023-02-12T06:16:54.520Z,28.70
2023-02-12T06:19:25.102Z,28.80
2023-02-12T06:21:54.506Z,28.70
2023-02-12T06:24:23.872Z,28.80
2023-02-12T06:26:53.690Z,28.70
2023-02-12T06:29:23.572Z,28.70
2023-02-12T06:31:53.482Z,28.80
2023-02-12T06:34:23.025Z,29.00
2023-02-12T06:36:53.463Z,29.20
2023-02-12T06:39:23.863Z,29.30
2023-02-12T06:41:54.365Z,29.50
2023-02-12T06:44:24.213Z,29.70
2023-02-12T06:46:53.840Z,29.80
2023-02-12T06:49:23.678Z,29.90
2023-02-12T06:51:53.028Z,30.00
2023-02-12T06:54:23.548Z,30.10
2023-02-12T06:56:52.874Z,30.20
2023-02-12T06:59:22.806Z,30.20
2023-02-12T07:01:53.221Z,30.20
2023-02-12T07:04:23.511Z,30.20
2023-02-12T07:06:53.673Z,30.20
2023-02-12T07:09:23.030Z,30.20
2023-02-12T07:11:52.462Z,30.20
2023-02-12T07:14:21.838Z,30.30
2023-02-12T07:16:51.467Z,30.20
2023-02-12T07:19:24.825Z,30.30
2023-02-12T07:21:54.605Z,30.30
2023-02-12T07:24:27.518Z,30.30
2023-02-12T07:26:56.916Z,30.20
2023-02-12T07:29:26.326Z,30.20
2023-02-12T07:31:55.775Z,29.90
2023-02-12T07:34:26.206Z,29.70
2023-02-12T07:36:56.004Z,29.50
2023-02-12T07:39:25.473Z,29.20
2023-02-12T07:41:54.829Z,28.80
2023-02-12T07:44:24.287Z,28.60
2023-02-12T07:46:53.632Z,28.40
2023-02-12T07:49:27.227Z,28.20
2023-02-12T07:51:58.393Z,28.00
2023-02-12T07:54:28.254Z,27.80
2023-02-12T07:56:57.597Z,27.70
2023-02-12T07:59:27.482Z,27.40
2023-02-12T08:01:58.300Z,27.30
2023-02-12T08:04:27.994Z,27.10
2023-02-12T08:06:58.532Z,26.90
2023-02-12T08:09:29.371Z,26.70
2023-02-12T08:11:59.933Z,26.60
2023-02-12T08:14:30.153Z,26.40
2023-02-12T08:16:59.532Z,26.30
2023-02-12T08:19:28.890Z,26.20
2023-02-12T08:21:59.749Z,26.00
2023-02-12T08:24:29.196Z,25.90
2023-02-12T08:26:59.273Z,25.70
2023-02-12T08:29:30.859Z,25.60
2023-02-12T08:32:01.900Z,25.40
2023-02-12T08:34:32.677Z,25.20
2023-02-12T08:37:02.887Z,25.20
2023-02-12T08:39:32.346Z,25.10
2023-02-12T08:42:03.190Z,24.90
2023-02-12T08:44:33.557Z,24.80
2023-02-12T08:47:03.095Z,24.70
2023-02-12T08:49:33.028Z,24.50
2023-02-12T08:52:05.186Z,24.40
2023-02-12T08:54:34.657Z,24.30
2023-02-12T08:57:05.309Z,24.20
2023-02-12T08:59:34.716Z,24.20
2023-02-12T09:02:05.671Z,24.10
2023-02-12T09:04:35.820Z,24.00
2023-02-12T09:07:07.342Z,23.90
2023-02-12T09:09:38.254Z,23.80
2023-02-12T09:12:07.711Z,23.70
2023-02-12T09:14:37.062Z,23.70
2023-02-12T09:17:06.601Z,23.60
2023-02-12T09:19:36.050Z,23.60
2023-02-12T09:22:05.417Z,23.50
2023-02-12T09:24:35.796Z,23.40
2023-02-12T09:27:05.203Z,23.30
2023-02-12T09:29:34.600Z,23.30
2023-02-12T09:32:07.160Z,23.30
2023-02-12T09:34:38.332Z,23.10
2023-02-12T09:37:07.662Z,23.10
2023-02-12T09:39:37.705Z,23.00
2023-02-12T09:42:25.343Z,22.90
2023-02-12T09:44:55.238Z,22.90
2023-02-12T09:47:53.550Z,22.80
2023-02-12T09:50:23.754Z,22.70
2023-02-12T09:52:54.387Z,22.70
2023-02-12T09:55:26.646Z,22.60
2023-02-12T09:57:56.057Z,22.60
2023-02-12T10:00:32.896Z,22.60
2023-02-12T10:03:06.338Z,22.60
2023-02-12T10:05:41.772Z,22.60
2023-02-12T10:08:24.814Z,22.60
2023-02-12T10:10:55.738Z,22.60
2023-02-12T10:13:43.065Z,22.60
2023-02-12T10:16:17.011Z,22.60
2023-02-12T10:18:57.995Z,22.50
2023-02-12T10:21:43.636Z,22.50
2023-02-12T10:24:29.516Z,22.40
2023-02-12T10:27:00.698Z,22.40
2023-02-12T10:29:33.431Z,22.30
2023-02-12T10:32:05.455Z,22.30
2023-02-12T10:34:36.426Z,22.30
2023-02-12T10:37:11.797Z,22.30
2023-02-12T10:39:44.740Z,22.20
2023-02-12T10:42:32.235Z,22.20
2023-02-12T10:45:02.155Z,22.20
2023-02-12T10:47:32.907Z,22.20
2023-02-12T10:50:04.254Z,22.20
2023-02-12T10:52:51.737Z,22.20
2023-02-12T10:55:31.390Z,22.20
2023-02-12T10:58:01.787Z,22.10
2023-02-12T11:00:38.508Z,22.10
2023-02-12T11:03:07.977Z,22.00
2023-02-12T11:05:38.410Z,21.90
2023-02-12T11:08:08.272Z,21.90
2023-02-12T11:10:42.521Z,21.90
2023-02-12T11:13:28.344Z,21.90
2023-02-12T11:15:58.585Z,21.90
2023-02-12T11:18:30.622Z,21.80
2023-02-12T11:21:02.804Z,21.80
2023-02-12T11:23:33.615Z,21.80
2023-02-12T11:26:05.594Z,21.80
2023-02-12T11:28:36.420Z,21.80
2023-02-12T11:31:12.057Z,21.80
2023-02-12T11:33:41.632Z,21.70
2023-02-12T11:36:17.378Z,21.70
2023-02-12T11:38:52.108Z,21.70
2023-02-12T20:38:29.889Z,17.20
2023-02-12T20:41:01.938Z,17.20
2023-02-12T20:43:32.127Z,17.30
2023-02-12T20:46:09.092Z,17.30
2023-02-12T20:48:40.056Z,17.20
2023-02-12T20:51:11.261Z,17.20
2023-02-12T20:53:40.714Z,17.20
2023-02-12T20:56:11.146Z,17.20
2023-02-12T20:58:42.109Z,17.10
2023-02-12T21:01:12.690Z,17.10
2023-02-12T21:03:43.048Z,17.10
2023-02-12T21:06:13.017Z,17.10
2023-02-12T21:08:44.055Z,17.10
2023-02-12T21:11:16.820Z,17.10
2023-02-12T21:13:58.750Z,17.10
2023-02-12T21:16:36.190Z,17.10
2023-02-12T21:19:05.950Z,17.00
2023-02-12T21:21:36.649Z,17.00
2023-02-12T21:24:07.670Z,17.00
2023-02-12T21:26:37.450Z,17.00
2023-02-12T21:29:07.163Z,16.90
2023-02-12T21:31:38.511Z,16.90
2023-02-12T21:34:08.849Z,17.00
2023-02-12T21:36:39.607Z,17.10
2023-02-12T21:39:10.385Z,17.10
2023-02-12T21:41:40.930Z,17.00
2023-02-12T21:44:19.057Z,17.00
2023-02-12T21:46:49.288Z,17.00
2023-02-12T21:49:26.180Z,17.10
2023-02-12T21:51:56.953Z,17.10
2023-02-12T21:54:26.397Z,17.20
2023-02-12T21:56:55.826Z,17.10
2023-02-12T21:59:26.627Z,17.10
2023-02-12T22:01:57.707Z,17.10
2023-02-12T22:04:27.195Z,17.10
2023-02-12T22:06:58.079Z,17.10
2023-02-12T22:09:28.014Z,17.20
2023-02-12T22:11:57.458Z,17.10
2023-02-12T22:14:26.806Z,17.10
2023-02-12T22:16:56.152Z,17.00
2023-02-12T22:19:25.541Z,17.00
2023-02-12T22:21:55.014Z,17.00
2023-02-12T22:24:25.507Z,17.00
2023-02-12T22:26:56.269Z,17.10
2023-02-12T22:29:26.125Z,17.10
2023-02-12T22:31:57.090Z,17.10
2023-02-12T22:34:26.548Z,17.10
2023-02-12T22:36:56.887Z,17.10
2023-02-12T22:39:26.245Z,17.20
2023-02-12T22:41:55.575Z,17.30
2023-02-12T22:44:25.035Z,17.30
2023-02-12T22:46:54.486Z,17.30
2023-02-12T22:49:23.931Z,17.40
2023-02-12T22:51:54.295Z,17.50
2023-02-12T22:54:23.879Z,17.50
2023-02-12T22:56:54.337Z,17.60
2023-02-12T22:59:23.850Z,17.60
2023-02-12T23:01:55.127Z,17.60
2023-02-12T23:04:25.501Z,17.60
2023-02-12T23:06:54.850Z,17.60
2023-02-12T23:09:24.178Z,17.70
2023-02-12T23:11:54.079Z,17.70
2023-02-12T23:14:23.656Z,17.70
2023-02-12T23:16:54.354Z,17.70
2023-02-12T23:19:23.827Z,17.70
2023-02-12T23:21:53.258Z,17.60
2023-02-12T23:24:22.675Z,17.60
2023-02-12T23:26:52.467Z,17.70
2023-02-12T23:29:21.949Z,17.70
2023-02-12T23:31:51.340Z,17.70
2023-02-12T23:34:20.808Z,17.80
2023-02-12T23:36:51.195Z,17.90
2023-02-12T23:39:20.588Z,18.00
2023-02-12T23:41:49.950Z,18.10
2023-02-12T23:44:19.305Z,18.20
2023-02-12T23:46:53.439Z,18.20
2023-02-12T23:49:23.835Z,18.00
2023-02-12T23:51:53.612Z,18.10
2023-02-12T23:54:22.972Z,18.10
2023-02-12T23:56:52.328Z,18.10
2023-02-12T23:59:22.131Z,18.20
